Flight Track Log - Related Links

Times and Time Zones

All times are in EDT time to prevent confusion due to time zone crossing. See the QXE2294 flight status page for this flight to view local times or setup timezone preferences in your user account.


Time Position Orientation Groundspeed Altitude Reporting Facility
EDT Latitude Longitude Course Direction KTS MPH feet Rate Location/Type
Sat 09:09:00 AM 44.6369 -121.5034 325° Northwest  Level FlightAware Approximate
Sat 09:10:00 AM 44.7009 -121.5675 325° Northwest  Level FlightAware Approximate
Sat 09:11:00 AM 44.7649 -121.6316 325° Northwest  Level FlightAware Approximate
Sat 09:12:00 AM 44.8290 -121.6957 325° Northwest  Level FlightAware Approximate
Sat 09:13:00 AM 44.8932 -121.7597 325° Northwest  Level FlightAware Approximate
Sat 09:14:00 AM 44.9575 -121.8235 327° Northwest  Level FlightAware Approximate
Sat 09:15:00 AM 45.0236 -121.8835 327° Northwest  Level FlightAware Approximate
Sat 09:16:00 AM 45.0897 -121.9436 327° Northwest  Level FlightAware Approximate
Sat 09:17:00 AM 45.1552 -122.0052 325° Northwest  Level FlightAware Approximate
Sat 09:18:00 AM 45.2195 -122.0694 325° Northwest  Level FlightAware Approximate
Sat 09:19:00 AM 45.2837 -122.1336 325° Northwest  Level FlightAware Approximate
Sat 09:20:00 AM 45.3482 -122.1975 325° Northwest  Level FlightAware Approximate
Sat 09:21:00 AM 45.4126 -122.2616 325° Northwest  Level FlightAware Approximate
Sat 09:22:00 AM 45.4770 -122.3258 325° Northwest  Level FlightAware Approximate
Sat 09:23:00 AM 45.5414 -122.3902 325° Northwest  Level FlightAware Approximate
Sat 09:24:00 AM 45.6057 -122.4547 325° Northwest  Level FlightAware Approximate
Sat 09:25:00 AM 45.6699 -122.5194 325° Northwest  Level FlightAware Approximate
Sat 09:26:00 AM 45.7344 -122.5835 353° North  Level FlightAware Approximate
Sat 09:27:00 AM 45.8123 -122.5981 353° North  Level FlightAware Approximate
Sat 09:28:00 AM 45.8902 -122.6127 353° North  Level FlightAware Approximate
Sat 09:29:00 AM 45.9681 -122.6273 353° North  Level FlightAware Approximate
Sat 09:30:00 AM 46.0458 -122.6448 350° North  Level FlightAware Approximate
Sat 09:31:00 AM 46.1232 -122.6641 350° North  Level FlightAware Approximate
Sat 09:32:00 AM 46.2006 -122.6835 350° North  Level FlightAware Approximate
Sat 09:33:00 AM 46.2779 -122.7038 347° North  Level FlightAware Approximate
Sat 09:34:00 AM 46.3555 -122.7167 North  Level FlightAware Approximate
Sat 09:35:00 AM 46.4341 -122.7166 North  Level FlightAware Approximate
Sat 09:36:00 AM 46.5125 -122.7095 North  Level FlightAware Approximate
Sat 09:37:00 AM 46.5909 -122.7023 North  Level FlightAware Approximate
Sat 09:38:00 AM 46.6695 -122.7000 North  Level FlightAware Approximate
Sat 09:39:00 AM 46.7481 -122.7000 North  Level FlightAware Approximate
Sat 09:40:00 AM 46.8220 -122.6780 34° Northeast  Level FlightAware Approximate
Sat 09:41:00 AM 46.8848 -122.6093 42° Northeast  Level FlightAware Approximate
Sat 09:42:00 AM 46.9477 -122.5428 19° North  Level FlightAware Approximate
Sat 09:43:00 AM 47.0230 -122.5109 10° North  Level FlightAware Approximate
Sat 09:44:00 AM 47.0992 -122.4838 19° North  Level FlightAware Approximate
Sat 09:45:00 AM 47.1770 -122.4679 North  Level FlightAware Approximate
Sat 09:46:00 AM 47.2550 -122.4571 10° North  Level FlightAware Approximate
Sat 09:47:00 AM 47.3331 -122.4500 North  Level FlightAware Approximate
Sat 09:48:00 AM 47.4117 -122.4500 North  Level FlightAware Approximate
Sat 09:49:00 AM 47.4903 -122.4500 North  Level FlightAware Approximate
Sat 09:50:00 AM 47.4695 -122.3603 132° Southeast  Level FlightAware Approximate
Sat 09:51:00 AM 47.4499 -122.3118 132° Southeast  Level Estimated
Sat 09:52:00 AM 47.4499 -122.3118 132° Southeast  Level Estimated
Sat 09:53:00 AM 47.4499 -122.3118 132° Southeast  Level Estimated
Sat 09:54:00 AM 47.4499 -122.3118 132° Southeast  Level Estimated
Sat 09:55:00 AM 47.4499 -122.3118 132° Southeast  Level Estimated
Sat 09:56:00 AM 47.4499 -122.3118 132° Southeast  Level Estimated
Sat 09:57:00 AM 47.4499 -122.3118 132° Southeast  Level Estimated
Sat 09:58:00 AM 47.4499 -122.3118 132° Southeast  Level Estimated
Sat 09:59:00 AM 47.4499 -122.3118 132° Southeast  Level Estimated
Sat 10:00:00 AM 47.4499 -122.3118 132° Southeast  Level Estimated
Sat 10:01:00 AM 47.4499 -122.3118 132° Southeast  Level Estimated
Sat 10:02:00 AM 47.4499 -122.3118 132° Southeast  Level Estimated
Sat 10:03:00 AM 47.4499 -122.3118 132° Southeast  Level Estimated
Sat 10:04:00 AM 47.4499 -122.3118 132° Southeast  Level Estimated
Sat 10:05:00 AM 47.4499 -122.3118 132° Southeast  Level Estimated
Sat 10:06:00 AM 47.4499 -122.3118 132° Southeast  Level Estimated

Login

Don't have an account? Register now (free) for customized features, flight alerts, and more!